sensor_id;sensor_type;location;lat;lon;timestamp;P1;durP1;ratioP1;P2;durP2;ratioP2
5833;SDS011;2943;48.012;10.968;2023-06-26T00:01:04;10.60;;;8.87;;
5833;SDS011;2943;48.012;10.968;2023-06-26T00:03:31;9.50;;;8.33;;
5833;SDS011;2943;48.012;10.968;2023-06-26T00:05:58;10.83;;;8.70;;
5833;SDS011;2943;48.012;10.968;2023-06-26T00:08:26;11.90;;;9.80;;
5833;SDS011;2943;48.012;10.968;2023-06-26T00:10:55;13.70;;;8.80;;
5833;SDS011;2943;48.012;10.968;2023-06-26T00:13:22;14.27;;;10.17;;
5833;SDS011;2943;48.012;10.968;2023-06-26T00:15:49;12.10;;;10.17;;
5833;SDS011;2943;48.012;10.968;2023-06-26T00:18:17;11.70;;;9.50;;
5833;SDS011;2943;48.012;10.968;2023-06-26T00:20:43;12.23;;;9.10;;
5833;SDS011;2943;48.012;10.968;2023-06-26T00:23:11;10.83;;;9.33;;
5833;SDS011;2943;48.012;10.968;2023-06-26T00:25:38;12.33;;;9.20;;
5833;SDS011;2943;48.012;10.968;2023-06-26T00:28:06;13.23;;;10.10;;
5833;SDS011;2943;48.012;10.968;2023-06-26T00:30:33;12.83;;;9.93;;
5833;SDS011;2943;48.012;10.968;2023-06-26T00:33:00;11.00;;;9.13;;
5833;SDS011;2943;48.012;10.968;2023-06-26T00:35:27;11.57;;;9.27;;
5833;SDS011;2943;48.012;10.968;2023-06-26T00:37:54;9.70;;;8.30;;
5833;SDS011;2943;48.012;10.968;2023-06-26T00:40:21;9.63;;;8.40;;
5833;SDS011;2943;48.012;10.968;2023-06-26T00:42:48;11.37;;;9.23;;
5833;SDS011;2943;48.012;10.968;2023-06-26T00:45:17;12.13;;;9.43;;
5833;SDS011;2943;48.012;10.968;2023-06-26T00:47:43;10.67;;;8.63;;
5833;SDS011;2943;48.012;10.968;2023-06-26T00:50:10;10.50;;;8.67;;
5833;SDS011;2943;48.012;10.968;2023-06-26T00:52:40;9.97;;;8.07;;
5833;SDS011;2943;48.012;10.968;2023-06-26T00:55:08;9.50;;;8.37;;
5833;SDS011;2943;48.012;10.968;2023-06-26T00:57:35;10.03;;;8.33;;
5833;SDS011;2943;48.012;10.968;2023-06-26T01:00:03;10.20;;;8.50;;
5833;SDS011;2943;48.012;10.968;2023-06-26T01:02:32;10.13;;;7.37;;
5833;SDS011;2943;48.012;10.968;2023-06-26T01:04:59;8.47;;;7.53;;
5833;SDS011;2943;48.012;10.968;2023-06-26T01:07:31;8.97;;;7.53;;
5833;SDS011;2943;48.012;10.968;2023-06-26T01:10:01;11.77;;;8.37;;
5833;SDS011;2943;48.012;10.968;2023-06-26T01:12:29;11.60;;;9.70;;
5833;SDS011;2943;48.012;10.968;2023-06-26T01:14:57;12.83;;;9.17;;
5833;SDS011;2943;48.012;10.968;2023-06-26T01:17:25;11.20;;;9.30;;
5833;SDS011;2943;48.012;10.968;2023-06-26T01:19:57;10.03;;;8.93;;
5833;SDS011;2943;48.012;10.968;2023-06-26T01:22:27;11.43;;;9.07;;
5833;SDS011;2943;48.012;10.968;2023-06-26T01:25:12;11.50;;;8.33;;
5833;SDS011;2943;48.012;10.968;2023-06-26T01:27:45;12.70;;;9.47;;
5833;SDS011;2943;48.012;10.968;2023-06-26T01:30:14;11.13;;;8.20;;
5833;SDS011;2943;48.012;10.968;2023-06-26T01:32:42;14.20;;;9.90;;
5833;SDS011;2943;48.012;10.968;2023-06-26T01:35:10;14.90;;;10.13;;
5833;SDS011;2943;48.012;10.968;2023-06-26T01:37:38;11.53;;;9.50;;
5833;SDS011;2943;48.012;10.968;2023-06-26T01:40:05;11.13;;;9.60;;
5833;SDS011;2943;48.012;10.968;2023-06-26T01:42:33;12.57;;;9.17;;
5833;SDS011;2943;48.012;10.968;2023-06-26T01:45:02;12.87;;;9.43;;
5833;SDS011;2943;48.012;10.968;2023-06-26T01:47:36;16.77;;;10.30;;
5833;SDS011;2943;48.012;10.968;2023-06-26T01:50:09;14.67;;;9.60;;
5833;SDS011;2943;48.012;10.968;2023-06-26T01:52:40;13.43;;;9.53;;
5833;SDS011;2943;48.012;10.968;2023-06-26T01:55:11;13.50;;;10.40;;
5833;SDS011;2943;48.012;10.968;2023-06-26T01:57:43;11.07;;;9.10;;
5833;SDS011;2943;48.012;10.968;2023-06-26T02:00:14;16.73;;;9.87;;
5833;SDS011;2943;48.012;10.968;2023-06-26T02:02:44;10.80;;;8.90;;
5833;SDS011;2943;48.012;10.968;2023-06-26T02:05:11;12.27;;;9.60;;
5833;SDS011;2943;48.012;10.968;2023-06-26T02:07:39;11.03;;;8.80;;
5833;SDS011;2943;48.012;10.968;2023-06-26T02:10:06;10.70;;;9.20;;
5833;SDS011;2943;48.012;10.968;2023-06-26T02:12:34;12.33;;;9.87;;
5833;SDS011;2943;48.012;10.968;2023-06-26T02:15:02;11.37;;;8.83;;
5833;SDS011;2943;48.012;10.968;2023-06-26T02:17:30;10.90;;;8.87;;
5833;SDS011;2943;48.012;10.968;2023-06-26T02:19:57;12.53;;;9.50;;
5833;SDS011;2943;48.012;10.968;2023-06-26T02:22:24;13.23;;;9.73;;
5833;SDS011;2943;48.012;10.968;2023-06-26T02:24:51;12.33;;;9.23;;
5833;SDS011;2943;48.012;10.968;2023-06-26T02:27:17;10.77;;;8.73;;
5833;SDS011;2943;48.012;10.968;2023-06-26T02:29:44;14.60;;;10.50;;
5833;SDS011;2943;48.012;10.968;2023-06-26T02:32:11;12.10;;;9.30;;
5833;SDS011;2943;48.012;10.968;2023-06-26T02:34:39;11.90;;;10.23;;
5833;SDS011;2943;48.012;10.968;2023-06-26T02:37:06;14.60;;;10.00;;
5833;SDS011;2943;48.012;10.968;2023-06-26T02:39:33;15.10;;;11.17;;
5833;SDS011;2943;48.012;10.968;2023-06-26T02:42:00;13.47;;;10.50;;
5833;SDS011;2943;48.012;10.968;2023-06-26T02:44:27;12.33;;;10.07;;
5833;SDS011;2943;48.012;10.968;2023-06-26T02:46:54;20.73;;;10.70;;
5833;SDS011;2943;48.012;10.968;2023-06-26T02:49:20;12.93;;;9.93;;
5833;SDS011;2943;48.012;10.968;2023-06-26T02:51:49;11.43;;;9.83;;
5833;SDS011;2943;48.012;10.968;2023-06-26T02:54:15;17.60;;;10.40;;
5833;SDS011;2943;48.012;10.968;2023-06-26T02:56:42;13.60;;;10.00;;
5833;SDS011;2943;48.012;10.968;2023-06-26T02:59:09;14.93;;;10.83;;
5833;SDS011;2943;48.012;10.968;2023-06-26T03:01:36;12.23;;;9.93;;
5833;SDS011;2943;48.012;10.968;2023-06-26T03:04:03;13.10;;;9.53;;
5833;SDS011;2943;48.012;10.968;2023-06-26T03:06:30;13.33;;;10.83;;
5833;SDS011;2943;48.012;10.968;2023-06-26T03:08:58;15.30;;;10.40;;
5833;SDS011;2943;48.012;10.968;2023-06-26T03:11:25;14.87;;;10.73;;
5833;SDS011;2943;48.012;10.968;2023-06-26T03:13:52;12.40;;;10.10;;
5833;SDS011;2943;48.012;10.968;2023-06-26T03:16:18;13.50;;;10.57;;
5833;SDS011;2943;48.012;10.968;2023-06-26T03:18:45;13.00;;;10.70;;
5833;SDS011;2943;48.012;10.968;2023-06-26T03:21:12;15.43;;;10.57;;
5833;SDS011;2943;48.012;10.968;2023-06-26T03:23:39;12.30;;;9.97;;
5833;SDS011;2943;48.012;10.968;2023-06-26T03:26:07;18.10;;;11.20;;
5833;SDS011;2943;48.012;10.968;2023-06-26T03:28:34;14.43;;;11.13;;
5833;SDS011;2943;48.012;10.968;2023-06-26T03:31:01;16.17;;;11.90;;
5833;SDS011;2943;48.012;10.968;2023-06-26T03:33:28;13.47;;;10.23;;
5833;SDS011;2943;48.012;10.968;2023-06-26T03:35:55;18.73;;;10.73;;
5833;SDS011;2943;48.012;10.968;2023-06-26T03:38:21;16.17;;;11.23;;
5833;SDS011;2943;48.012;10.968;2023-06-26T03:40:50;15.73;;;11.30;;
5833;SDS011;2943;48.012;10.968;2023-06-26T03:43:19;16.20;;;11.33;;
5833;SDS011;2943;48.012;10.968;2023-06-26T03:45:46;14.47;;;11.27;;
5833;SDS011;2943;48.012;10.968;2023-06-26T03:48:13;13.00;;;10.17;;
5833;SDS011;2943;48.012;10.968;2023-06-26T03:50:39;14.10;;;11.20;;
5833;SDS011;2943;48.012;10.968;2023-06-26T03:53:06;14.07;;;11.00;;
5833;SDS011;2943;48.012;10.968;2023-06-26T03:55:33;14.80;;;10.60;;
5833;SDS011;2943;48.012;10.968;2023-06-26T03:58:00;12.30;;;10.13;;
5833;SDS011;2943;48.012;10.968;2023-06-26T04:00:28;12.97;;;10.20;;
5833;SDS011;2943;48.012;10.968;2023-06-26T04:02:55;13.27;;;10.20;;
5833;SDS011;2943;48.012;10.968;2023-06-26T04:05:22;15.70;;;10.27;;
5833;SDS011;2943;48.012;10.968;2023-06-26T04:07:51;15.00;;;10.90;;
5833;SDS011;2943;48.012;10.968;2023-06-26T04:10:19;14.23;;;10.50;;
5833;SDS011;2943;48.012;10.968;2023-06-26T04:12:46;16.50;;;10.97;;
5833;SDS011;2943;48.012;10.968;2023-06-26T04:15:14;14.93;;;10.50;;
5833;SDS011;2943;48.012;10.968;2023-06-26T04:17:42;14.63;;;9.87;;
5833;SDS011;2943;48.012;10.968;2023-06-26T04:20:09;15.30;;;9.83;;
5833;SDS011;2943;48.012;10.968;2023-06-26T04:22:36;12.13;;;9.80;;
5833;SDS011;2943;48.012;10.968;2023-06-26T04:25:03;13.70;;;9.43;;
5833;SDS011;2943;48.012;10.968;2023-06-26T04:27:31;16.50;;;10.90;;
5833;SDS011;2943;48.012;10.968;2023-06-26T04:29:57;14.80;;;9.87;;
5833;SDS011;2943;48.012;10.968;2023-06-26T04:32:24;12.10;;;9.23;;
5833;SDS011;2943;48.012;10.968;2023-06-26T04:34:52;12.20;;;9.37;;
5833;SDS011;2943;48.012;10.968;2023-06-26T04:37:19;12.07;;;9.70;;
5833;SDS011;2943;48.012;10.968;2023-06-26T04:39:46;14.50;;;9.90;;
5833;SDS011;2943;48.012;10.968;2023-06-26T04:42:13;15.33;;;9.73;;
5833;SDS011;2943;48.012;10.968;2023-06-26T04:44:40;13.17;;;9.97;;
5833;SDS011;2943;48.012;10.968;2023-06-26T04:47:07;12.57;;;9.57;;
5833;SDS011;2943;48.012;10.968;2023-06-26T04:49:34;11.83;;;9.20;;
5833;SDS011;2943;48.012;10.968;2023-06-26T04:52:03;11.70;;;9.60;;
5833;SDS011;2943;48.012;10.968;2023-06-26T04:54:30;13.40;;;10.00;;
5833;SDS011;2943;48.012;10.968;2023-06-26T04:56:57;11.40;;;8.60;;
5833;SDS011;2943;48.012;10.968;2023-06-26T04:59:24;13.17;;;9.30;;
5833;SDS011;2943;48.012;10.968;2023-06-26T05:01:51;10.67;;;8.70;;
5833;SDS011;2943;48.012;10.968;2023-06-26T05:04:18;12.87;;;9.60;;
5833;SDS011;2943;48.012;10.968;2023-06-26T05:06:45;14.40;;;9.30;;
5833;SDS011;2943;48.012;10.968;2023-06-26T05:09:13;11.70;;;9.20;;
5833;SDS011;2943;48.012;10.968;2023-06-26T05:11:40;12.07;;;9.17;;
5833;SDS011;2943;48.012;10.968;2023-06-26T05:14:07;12.07;;;9.80;;
5833;SDS011;2943;48.012;10.968;2023-06-26T05:16:34;10.47;;;8.93;;
5833;SDS011;2943;48.012;10.968;2023-06-26T05:19:01;12.80;;;9.57;;
5833;SDS011;2943;48.012;10.968;2023-06-26T05:21:28;12.07;;;9.20;;
5833;SDS011;2943;48.012;10.968;2023-06-26T05:23:56;11.50;;;10.10;;
5833;SDS011;2943;48.012;10.968;2023-06-26T05:26:26;12.07;;;10.07;;
5833;SDS011;2943;48.012;10.968;2023-06-26T05:28:53;12.57;;;9.53;;
5833;SDS011;2943;48.012;10.968;2023-06-26T05:31:21;13.83;;;9.20;;
5833;SDS011;2943;48.012;10.968;2023-06-26T05:33:51;14.37;;;10.77;;
5833;SDS011;2943;48.012;10.968;2023-06-26T05:36:21;12.20;;;10.33;;
5833;SDS011;2943;48.012;10.968;2023-06-26T05:38:50;13.63;;;9.30;;
5833;SDS011;2943;48.012;10.968;2023-06-26T05:41:17;12.10;;;9.13;;
5833;SDS011;2943;48.012;10.968;2023-06-26T05:43:46;10.73;;;8.40;;
5833;SDS011;2943;48.012;10.968;2023-06-26T05:46:13;9.80;;;8.00;;
5833;SDS011;2943;48.012;10.968;2023-06-26T05:48:40;9.37;;;8.03;;
5833;SDS011;2943;48.012;10.968;2023-06-26T05:51:07;13.80;;;8.70;;
5833;SDS011;2943;48.012;10.968;2023-06-26T05:53:35;8.40;;;7.50;;
5833;SDS011;2943;48.012;10.968;2023-06-26T05:56:04;10.07;;;7.00;;
5833;SDS011;2943;48.012;10.968;2023-06-26T05:58:33;9.50;;;8.03;;
5833;SDS011;2943;48.012;10.968;2023-06-26T06:01:08;9.00;;;7.37;;
5833;SDS011;2943;48.012;10.968;2023-06-26T06:03:38;9.37;;;7.60;;
5833;SDS011;2943;48.012;10.968;2023-06-26T06:06:07;9.10;;;7.47;;
5833;SDS011;2943;48.012;10.968;2023-06-26T06:08:34;8.67;;;7.70;;
5833;SDS011;2943;48.012;10.968;2023-06-26T06:11:01;11.37;;;8.40;;
5833;SDS011;2943;48.012;10.968;2023-06-26T06:13:28;10.90;;;7.77;;
5833;SDS011;2943;48.012;10.968;2023-06-26T06:15:57;9.27;;;6.80;;
5833;SDS011;2943;48.012;10.968;2023-06-26T06:18:26;7.53;;;6.57;;
5833;SDS011;2943;48.012;10.968;2023-06-26T06:20:53;8.70;;;7.50;;
5833;SDS011;2943;48.012;10.968;2023-06-26T06:23:21;11.00;;;7.07;;
5833;SDS011;2943;48.012;10.968;2023-06-26T06:25:48;10.00;;;7.60;;
5833;SDS011;2943;48.012;10.968;2023-06-26T06:28:15;13.63;;;7.17;;
5833;SDS011;2943;48.012;10.968;2023-06-26T06:30:42;10.00;;;7.00;;
5833;SDS011;2943;48.012;10.968;2023-06-26T06:33:09;9.70;;;7.77;;
5833;SDS011;2943;48.012;10.968;2023-06-26T06:35:38;11.00;;;7.30;;
5833;SDS011;2943;48.012;10.968;2023-06-26T06:38:06;9.47;;;7.53;;
5833;SDS011;2943;48.012;10.968;2023-06-26T06:40:33;8.27;;;7.23;;
5833;SDS011;2943;48.012;10.968;2023-06-26T06:43:00;8.17;;;7.37;;
5833;SDS011;2943;48.012;10.968;2023-06-26T06:45:26;9.90;;;7.57;;
5833;SDS011;2943;48.012;10.968;2023-06-26T06:47:53;11.73;;;8.00;;
5833;SDS011;2943;48.012;10.968;2023-06-26T06:50:20;9.27;;;7.37;;
5833;SDS011;2943;48.012;10.968;2023-06-26T06:52:49;8.30;;;7.30;;
5833;SDS011;2943;48.012;10.968;2023-06-26T06:55:15;8.60;;;7.60;;
5833;SDS011;2943;48.012;10.968;2023-06-26T06:57:42;7.90;;;7.10;;
5833;SDS011;2943;48.012;10.968;2023-06-26T07:00:10;7.77;;;6.60;;
5833;SDS011;2943;48.012;10.968;2023-06-26T07:02:39;14.13;;;7.47;;
5833;SDS011;2943;48.012;10.968;2023-06-26T07:05:08;9.03;;;7.37;;
5833;SDS011;2943;48.012;10.968;2023-06-26T07:07:36;9.93;;;7.00;;
5833;SDS011;2943;48.012;10.968;2023-06-26T07:10:06;9.47;;;7.47;;
5833;SDS011;2943;48.012;10.968;2023-06-26T07:12:34;10.40;;;7.80;;
5833;SDS011;2943;48.012;10.968;2023-06-26T07:15:02;7.87;;;7.07;;
5833;SDS011;2943;48.012;10.968;2023-06-26T07:17:30;9.30;;;7.27;;
5833;SDS011;2943;48.012;10.968;2023-06-26T07:19:57;9.30;;;6.87;;
5833;SDS011;2943;48.012;10.968;2023-06-26T07:22:29;10.40;;;7.03;;
5833;SDS011;2943;48.012;10.968;2023-06-26T07:24:56;8.20;;;6.43;;
5833;SDS011;2943;48.012;10.968;2023-06-26T07:27:24;7.97;;;6.77;;
5833;SDS011;2943;48.012;10.968;2023-06-26T07:29:51;9.10;;;7.33;;
5833;SDS011;2943;48.012;10.968;2023-06-26T07:32:18;9.70;;;7.10;;
5833;SDS011;2943;48.012;10.968;2023-06-26T07:34:45;7.57;;;6.60;;
5833;SDS011;2943;48.012;10.968;2023-06-26T07:37:12;10.23;;;7.30;;
5833;SDS011;2943;48.012;10.968;2023-06-26T07:39:41;8.07;;;7.27;;
5833;SDS011;2943;48.012;10.968;2023-06-26T07:42:08;7.37;;;6.57;;
5833;SDS011;2943;48.012;10.968;2023-06-26T07:44:36;7.83;;;7.03;;
5833;SDS011;2943;48.012;10.968;2023-06-26T07:47:03;8.10;;;7.20;;
5833;SDS011;2943;48.012;10.968;2023-06-26T07:49:30;8.60;;;6.80;;
5833;SDS011;2943;48.012;10.968;2023-06-26T07:51:57;7.37;;;6.40;;
5833;SDS011;2943;48.012;10.968;2023-06-26T07:54:24;6.87;;;6.20;;
5833;SDS011;2943;48.012;10.968;2023-06-26T07:56:55;6.50;;;5.90;;
5833;SDS011;2943;48.012;10.968;2023-06-26T07:59:22;7.93;;;6.25;;
5833;SDS011;2943;48.012;10.968;2023-06-26T08:01:53;9.30;;;6.83;;
5833;SDS011;2943;48.012;10.968;2023-06-26T08:04:21;6.80;;;6.20;;
5833;SDS011;2943;48.012;10.968;2023-06-26T08:06:50;7.30;;;6.30;;
5833;SDS011;2943;48.012;10.968;2023-06-26T08:09:18;6.80;;;5.70;;
5833;SDS011;2943;48.012;10.968;2023-06-26T08:11:45;8.80;;;6.27;;
5833;SDS011;2943;48.012;10.968;2023-06-26T08:14:13;7.23;;;6.23;;
5833;SDS011;2943;48.012;10.968;2023-06-26T08:16:40;6.47;;;5.83;;
5833;SDS011;2943;48.012;10.968;2023-06-26T08:19:09;6.97;;;6.27;;
5833;SDS011;2943;48.012;10.968;2023-06-26T08:21:36;8.30;;;6.97;;
5833;SDS011;2943;48.012;10.968;2023-06-26T08:24:03;7.50;;;6.00;;
5833;SDS011;2943;48.012;10.968;2023-06-26T08:26:30;6.83;;;6.13;;
5833;SDS011;2943;48.012;10.968;2023-06-26T08:28:57;8.73;;;6.10;;
5833;SDS011;2943;48.012;10.968;2023-06-26T08:31:24;8.10;;;6.50;;
5833;SDS011;2943;48.012;10.968;2023-06-26T08:33:50;7.40;;;6.07;;
5833;SDS011;2943;48.012;10.968;2023-06-26T08:36:19;6.43;;;5.83;;
5833;SDS011;2943;48.012;10.968;2023-06-26T08:38:47;6.90;;;6.20;;
5833;SDS011;2943;48.012;10.968;2023-06-26T08:41:17;12.50;;;6.03;;
5833;SDS011;2943;48.012;10.968;2023-06-26T08:43:44;8.63;;;6.13;;
5833;SDS011;2943;48.012;10.968;2023-06-26T08:46:11;6.00;;;5.40;;
5833;SDS011;2943;48.012;10.968;2023-06-26T08:48:42;7.60;;;5.53;;
5833;SDS011;2943;48.012;10.968;2023-06-26T08:51:21;7.83;;;5.50;;
5833;SDS011;2943;48.012;10.968;2023-06-26T08:53:57;6.90;;;5.10;;
5833;SDS011;2943;48.012;10.968;2023-06-26T08:56:27;7.77;;;6.97;;
5833;SDS011;2943;48.012;10.968;2023-06-26T08:58:58;7.80;;;5.83;;
5833;SDS011;2943;48.012;10.968;2023-06-26T09:01:29;5.77;;;4.70;;
5833;SDS011;2943;48.012;10.968;2023-06-26T09:03:57;6.60;;;4.90;;
5833;SDS011;2943;48.012;10.968;2023-06-26T09:06:26;6.87;;;5.60;;
5833;SDS011;2943;48.012;10.968;2023-06-26T09:09:07;5.27;;;4.80;;
5833;SDS011;2943;48.012;10.968;2023-06-26T09:11:35;6.13;;;5.07;;
5833;SDS011;2943;48.012;10.968;2023-06-26T09:14:04;5.70;;;5.20;;
5833;SDS011;2943;48.012;10.968;2023-06-26T09:16:40;6.73;;;5.13;;
5833;SDS011;2943;48.012;10.968;2023-06-26T09:19:08;5.30;;;4.80;;
5833;SDS011;2943;48.012;10.968;2023-06-26T09:21:40;6.73;;;5.47;;
5833;SDS011;2943;48.012;10.968;2023-06-26T09:24:08;11.73;;;4.90;;
5833;SDS011;2943;48.012;10.968;2023-06-26T09:26:38;6.27;;;5.67;;
5833;SDS011;2943;48.012;10.968;2023-06-26T09:29:06;5.30;;;4.80;;
5833;SDS011;2943;48.012;10.968;2023-06-26T09:31:33;6.03;;;5.50;;
5833;SDS011;2943;48.012;10.968;2023-06-26T09:34:01;7.60;;;5.73;;
5833;SDS011;2943;48.012;10.968;2023-06-26T09:36:29;7.57;;;5.10;;
5833;SDS011;2943;48.012;10.968;2023-06-26T09:39:03;5.43;;;4.93;;
5833;SDS011;2943;48.012;10.968;2023-06-26T09:41:33;6.40;;;5.40;;
5833;SDS011;2943;48.012;10.968;2023-06-26T09:44:01;9.20;;;5.73;;
5833;SDS011;2943;48.012;10.968;2023-06-26T09:46:33;6.30;;;5.70;;
5833;SDS011;2943;48.012;10.968;2023-06-26T09:49:04;5.70;;;5.10;;
5833;SDS011;2943;48.012;10.968;2023-06-26T09:51:42;11.27;;;5.70;;
5833;SDS011;2943;48.012;10.968;2023-06-26T09:54:11;5.60;;;5.10;;
5833;SDS011;2943;48.012;10.968;2023-06-26T09:56:39;6.50;;;5.53;;
5833;SDS011;2943;48.012;10.968;2023-06-26T09:59:06;6.53;;;5.57;;
5833;SDS011;2943;48.012;10.968;2023-06-26T10:01:39;8.27;;;5.80;;
5833;SDS011;2943;48.012;10.968;2023-06-26T10:04:07;5.70;;;5.10;;
5833;SDS011;2943;48.012;10.968;2023-06-26T10:06:36;7.25;;;5.10;;
5833;SDS011;2943;48.012;10.968;2023-06-26T10:09:07;5.73;;;5.10;;
5833;SDS011;2943;48.012;10.968;2023-06-26T10:11:40;6.67;;;5.90;;
5833;SDS011;2943;48.012;10.968;2023-06-26T10:14:11;5.15;;;4.60;;
5833;SDS011;2943;48.012;10.968;2023-06-26T10:16:39;7.70;;;5.90;;
5833;SDS011;2943;48.012;10.968;2023-06-26T10:19:08;6.20;;;5.60;;
5833;SDS011;2943;48.012;10.968;2023-06-26T10:21:36;5.82;;;4.95;;
5833;SDS011;2943;48.012;10.968;2023-06-26T10:24:05;8.50;;;5.05;;
5833;SDS011;2943;48.012;10.968;2023-06-26T10:26:35;5.90;;;5.40;;
5833;SDS011;2943;48.012;10.968;2023-06-26T10:29:09;9.63;;;5.37;;
5833;SDS011;2943;48.012;10.968;2023-06-26T10:31:37;5.65;;;4.88;;
5833;SDS011;2943;48.012;10.968;2023-06-26T10:34:12;6.90;;;5.82;;
5833;SDS011;2943;48.012;10.968;2023-06-26T10:36:40;10.55;;;5.72;;
5833;SDS011;2943;48.012;10.968;2023-06-26T10:39:09;6.88;;;6.18;;
5833;SDS011;2943;48.012;10.968;2023-06-26T10:41:39;5.90;;;5.30;;
5833;SDS011;2943;48.012;10.968;2023-06-26T10:44:10;6.47;;;5.88;;
5833;SDS011;2943;48.012;10.968;2023-06-26T10:49:24;6.28;;;5.68;;
5833;SDS011;2943;48.012;10.968;2023-06-26T10:51:52;9.57;;;5.55;;
5833;SDS011;2943;48.012;10.968;2023-06-26T10:54:21;6.53;;;5.85;;
5833;SDS011;2943;48.012;10.968;2023-06-26T10:56:49;6.68;;;6.03;;
5833;SDS011;2943;48.012;10.968;2023-06-26T10:59:22;5.60;;;5.10;;
5833;SDS011;2943;48.012;10.968;2023-06-26T11:01:54;8.38;;;5.15;;
5833;SDS011;2943;48.012;10.968;2023-06-26T11:04:35;8.35;;;5.97;;
5833;SDS011;2943;48.012;10.968;2023-06-26T11:07:17;6.20;;;5.60;;
5833;SDS011;2943;48.012;10.968;2023-06-26T11:09:55;8.10;;;5.73;;
5833;SDS011;2943;48.012;10.968;2023-06-26T11:12:35;8.55;;;6.45;;
5833;SDS011;2943;48.012;10.968;2023-06-26T11:15:03;8.05;;;5.50;;
5833;SDS011;2943;48.012;10.968;2023-06-26T11:17:34;6.93;;;5.85;;
5833;SDS011;2943;48.012;10.968;2023-06-26T11:20:01;7.25;;;5.50;;
5833;SDS011;2943;48.012;10.968;2023-06-26T11:22:29;10.40;;;6.53;;
5833;SDS011;2943;48.012;10.968;2023-06-26T11:24:59;6.95;;;6.25;;
5833;SDS011;2943;48.012;10.968;2023-06-26T11:27:30;6.88;;;6.18;;
5833;SDS011;2943;48.012;10.968;2023-06-26T11:30:01;6.70;;;6.10;;
5833;SDS011;2943;48.012;10.968;2023-06-26T11:32:28;6.43;;;5.82;;
5833;SDS011;2943;48.012;10.968;2023-06-26T11:34:55;6.53;;;5.88;;
5833;SDS011;2943;48.012;10.968;2023-06-26T11:37:22;7.25;;;6.55;;
5833;SDS011;2943;48.012;10.968;2023-06-26T11:39:50;6.80;;;5.93;;
5833;SDS011;2943;48.012;10.968;2023-06-26T11:42:17;8.40;;;6.25;;
5833;SDS011;2943;48.012;10.968;2023-06-26T11:44:46;8.63;;;6.43;;
5833;SDS011;2943;48.012;10.968;2023-06-26T11:47:15;6.80;;;6.20;;
5833;SDS011;2943;48.012;10.968;2023-06-26T11:49:43;7.32;;;6.60;;
5833;SDS011;2943;48.012;10.968;2023-06-26T11:52:10;7.20;;;6.00;;
5833;SDS011;2943;48.012;10.968;2023-06-26T11:54:37;7.72;;;6.30;;
5833;SDS011;2943;48.012;10.968;2023-06-26T11:57:05;7.88;;;7.07;;
5833;SDS011;2943;48.012;10.968;2023-06-26T11:59:33;7.47;;;6.78;;
5833;SDS011;2943;48.012;10.968;2023-06-26T12:02:04;7.03;;;6.38;;
5833;SDS011;2943;48.012;10.968;2023-06-26T12:04:34;7.20;;;6.50;;
5833;SDS011;2943;48.012;10.968;2023-06-26T12:07:03;9.13;;;7.05;;
5833;SDS011;2943;48.012;10.968;2023-06-26T12:09:33;8.68;;;6.85;;
5833;SDS011;2943;48.012;10.968;2023-06-26T12:12:07;9.25;;;6.82;;
5833;SDS011;2943;48.012;10.968;2023-06-26T12:14:34;8.70;;;6.63;;
5833;SDS011;2943;48.012;10.968;2023-06-26T12:17:05;8.98;;;7.07;;
5833;SDS011;2943;48.012;10.968;2023-06-26T12:19:37;8.27;;;6.13;;
5833;SDS011;2943;48.012;10.968;2023-06-26T12:22:06;8.63;;;6.85;;
5833;SDS011;2943;48.012;10.968;2023-06-26T12:24:35;8.02;;;7.22;;
5833;SDS011;2943;48.012;10.968;2023-06-26T12:27:06;8.15;;;7.30;;
5833;SDS011;2943;48.012;10.968;2023-06-26T12:29:34;8.93;;;7.07;;
5833;SDS011;2943;48.012;10.968;2023-06-26T12:32:02;8.77;;;6.57;;
5833;SDS011;2943;48.012;10.968;2023-06-26T12:34:33;8.77;;;6.72;;
5833;SDS011;2943;48.012;10.968;2023-06-26T12:37:03;7.60;;;6.80;;
5833;SDS011;2943;48.012;10.968;2023-06-26T12:39:45;10.00;;;7.03;;
5833;SDS011;2943;48.012;10.968;2023-06-26T12:42:13;7.50;;;6.60;;
5833;SDS011;2943;48.012;10.968;2023-06-26T12:44:41;7.93;;;7.15;;
5833;SDS011;2943;48.012;10.968;2023-06-26T12:47:08;8.90;;;6.63;;
5833;SDS011;2943;48.012;10.968;2023-06-26T12:49:35;8.35;;;7.43;;
5833;SDS011;2943;48.012;10.968;2023-06-26T12:52:05;12.30;;;7.30;;
5833;SDS011;2943;48.012;10.968;2023-06-26T12:54:33;13.75;;;6.53;;
5833;SDS011;2943;48.012;10.968;2023-06-26T12:57:00;8.30;;;6.93;;
5833;SDS011;2943;48.012;10.968;2023-06-26T12:59:28;7.63;;;6.57;;
5833;SDS011;2943;48.012;10.968;2023-06-26T13:01:55;7.25;;;6.55;;
5833;SDS011;2943;48.012;10.968;2023-06-26T13:04:22;6.72;;;6.13;;
5833;SDS011;2943;48.012;10.968;2023-06-26T13:06:49;9.25;;;7.68;;
5833;SDS011;2943;48.012;10.968;2023-06-26T13:09:18;10.80;;;8.10;;
5833;SDS011;2943;48.012;10.968;2023-06-26T13:11:44;7.93;;;6.80;;
5833;SDS011;2943;48.012;10.968;2023-06-26T13:14:11;7.03;;;6.38;;
5833;SDS011;2943;48.012;10.968;2023-06-26T13:16:39;8.32;;;6.93;;
5833;SDS011;2943;48.012;10.968;2023-06-26T13:19:09;8.00;;;7.07;;
5833;SDS011;2943;48.012;10.968;2023-06-26T13:21:36;7.40;;;6.70;;
5833;SDS011;2943;48.012;10.968;2023-06-26T13:24:03;7.60;;;6.85;;
5833;SDS011;2943;48.012;10.968;2023-06-26T13:26:32;9.85;;;7.07;;
5833;SDS011;2943;48.012;10.968;2023-06-26T13:28:59;7.35;;;6.60;;
5833;SDS011;2943;48.012;10.968;2023-06-26T13:31:26;10.57;;;6.13;;
5833;SDS011;2943;48.012;10.968;2023-06-26T13:33:53;7.40;;;6.65;;
5833;SDS011;2943;48.012;10.968;2023-06-26T13:36:23;7.40;;;6.60;;
5833;SDS011;2943;48.012;10.968;2023-06-26T13:38:50;9.43;;;6.88;;
5833;SDS011;2943;48.012;10.968;2023-06-26T13:41:20;7.90;;;7.13;;
5833;SDS011;2943;48.012;10.968;2023-06-26T13:43:49;7.65;;;6.63;;
5833;SDS011;2943;48.012;10.968;2023-06-26T13:46:16;8.02;;;7.22;;
5833;SDS011;2943;48.012;10.968;2023-06-26T13:48:43;7.53;;;6.75;;
5833;SDS011;2943;48.012;10.968;2023-06-26T13:51:10;7.72;;;7.03;;
5833;SDS011;2943;48.012;10.968;2023-06-26T13:53:37;7.07;;;6.38;;
5833;SDS011;2943;48.012;10.968;2023-06-26T13:56:03;7.57;;;6.80;;
5833;SDS011;2943;48.012;10.968;2023-06-26T13:58:31;7.00;;;6.30;;
5833;SDS011;2943;48.012;10.968;2023-06-26T14:00:59;7.40;;;6.63;;
5833;SDS011;2943;48.012;10.968;2023-06-26T14:03:26;7.63;;;6.82;;
5833;SDS011;2943;48.012;10.968;2023-06-26T14:05:53;7.47;;;6.68;;
5833;SDS011;2943;48.012;10.968;2023-06-26T14:08:20;6.90;;;6.30;;
5833;SDS011;2943;48.012;10.968;2023-06-26T14:10:47;9.23;;;6.45;;
5833;SDS011;2943;48.012;10.968;2023-06-26T14:13:14;13.30;;;7.23;;
5833;SDS011;2943;48.012;10.968;2023-06-26T14:15:41;10.60;;;7.43;;
5833;SDS011;2943;48.012;10.968;2023-06-26T14:18:09;7.82;;;7.03;;
5833;SDS011;2943;48.012;10.968;2023-06-26T14:20:36;8.73;;;7.10;;
5833;SDS011;2943;48.012;10.968;2023-06-26T14:23:03;8.00;;;7.20;;
5833;SDS011;2943;48.012;10.968;2023-06-26T14:25:30;8.25;;;6.68;;
5833;SDS011;2943;48.012;10.968;2023-06-26T14:28:00;10.18;;;6.78;;
5833;SDS011;2943;48.012;10.968;2023-06-26T14:30:27;8.80;;;7.50;;
5833;SDS011;2943;48.012;10.968;2023-06-26T14:32:53;9.00;;;6.10;;
5833;SDS011;2943;48.012;10.968;2023-06-26T14:35:22;8.63;;;6.85;;
5833;SDS011;2943;48.012;10.968;2023-06-26T14:37:48;7.45;;;6.70;;
5833;SDS011;2943;48.012;10.968;2023-06-26T14:40:15;8.95;;;6.60;;
5833;SDS011;2943;48.012;10.968;2023-06-26T14:42:42;10.32;;;7.57;;
5833;SDS011;2943;48.012;10.968;2023-06-26T14:45:10;9.82;;;7.07;;
5833;SDS011;2943;48.012;10.968;2023-06-26T14:47:37;6.93;;;6.28;;
5833;SDS011;2943;48.012;10.968;2023-06-26T14:50:05;11.77;;;6.72;;
5833;SDS011;2943;48.012;10.968;2023-06-26T14:52:34;15.05;;;6.78;;
5833;SDS011;2943;48.012;10.968;2023-06-26T14:55:01;8.27;;;6.85;;
5833;SDS011;2943;48.012;10.968;2023-06-26T14:57:27;7.70;;;6.65;;
5833;SDS011;2943;48.012;10.968;2023-06-26T14:59:58;7.75;;;6.85;;
5833;SDS011;2943;48.012;10.968;2023-06-26T15:02:25;9.68;;;7.18;;